sensor_id;sensor_type;location;lat;lon;timestamp;P1;durP1;ratioP1;P2;durP2;ratioP2
22679;SDS011;11507;44.858;10.374;2023-03-13T00:03:23;9.25;;;6.00;;
22679;SDS011;11507;44.858;10.374;2023-03-13T00:08:15;13.27;;;7.03;;
22679;SDS011;11507;44.858;10.374;2023-03-13T00:13:07;11.45;;;6.70;;
22679;SDS011;11507;44.858;10.374;2023-03-13T00:15:33;11.73;;;6.22;;
22679;SDS011;11507;44.858;10.374;2023-03-13T00:17:59;12.15;;;6.68;;
22679;SDS011;11507;44.858;10.374;2023-03-13T00:22:51;18.20;;;8.18;;
22679;SDS011;11507;44.858;10.374;2023-03-13T00:25:17;17.25;;;8.30;;
22679;SDS011;11507;44.858;10.374;2023-03-13T00:27:44;11.98;;;6.45;;
22679;SDS011;11507;44.858;10.374;2023-03-13T00:32:41;10.60;;;5.95;;
22679;SDS011;11507;44.858;10.374;2023-03-13T00:35:08;9.93;;;6.75;;
22679;SDS011;11507;44.858;10.374;2023-03-13T00:39:59;18.17;;;8.38;;
22679;SDS011;11507;44.858;10.374;2023-03-13T00:44:53;18.77;;;8.43;;
22679;SDS011;11507;44.858;10.374;2023-03-13T00:49:45;13.57;;;7.82;;
22679;SDS011;11507;44.858;10.374;2023-03-13T00:52:11;17.02;;;8.70;;
22679;SDS011;11507;44.858;10.374;2023-03-13T00:54:38;18.10;;;8.70;;
22679;SDS011;11507;44.858;10.374;2023-03-13T00:59:30;19.70;;;9.95;;
22679;SDS011;11507;44.858;10.374;2023-03-13T01:01:56;19.33;;;9.82;;
22679;SDS011;11507;44.858;10.374;2023-03-13T01:06:48;12.23;;;7.68;;
22679;SDS011;11507;44.858;10.374;2023-03-13T01:09:15;10.90;;;7.57;;
22679;SDS011;11507;44.858;10.374;2023-03-13T01:11:42;16.55;;;7.70;;
22679;SDS011;11507;44.858;10.374;2023-03-13T01:14:11;15.13;;;7.60;;
22679;SDS011;11507;44.858;10.374;2023-03-13T01:16:42;19.33;;;8.30;;
22679;SDS011;11507;44.858;10.374;2023-03-13T01:19:09;16.27;;;9.23;;
22679;SDS011;11507;44.858;10.374;2023-03-13T01:21:37;20.15;;;10.07;;
22679;SDS011;11507;44.858;10.374;2023-03-13T01:24:03;17.58;;;8.38;;
22679;SDS011;11507;44.858;10.374;2023-03-13T01:26:30;14.60;;;8.10;;
22679;SDS011;11507;44.858;10.374;2023-03-13T01:28:56;18.00;;;9.07;;
22679;SDS011;11507;44.858;10.374;2023-03-13T01:31:25;11.77;;;8.02;;
22679;SDS011;11507;44.858;10.374;2023-03-13T01:33:53;18.88;;;8.02;;
22679;SDS011;11507;44.858;10.374;2023-03-13T01:36:21;14.10;;;8.43;;
22679;SDS011;11507;44.858;10.374;2023-03-13T01:38:48;18.45;;;8.80;;
22679;SDS011;11507;44.858;10.374;2023-03-13T01:41:15;14.10;;;8.40;;
22679;SDS011;11507;44.858;10.374;2023-03-13T01:43:43;14.18;;;8.02;;
22679;SDS011;11507;44.858;10.374;2023-03-13T01:46:11;19.25;;;10.45;;
22679;SDS011;11507;44.858;10.374;2023-03-13T01:51:58;18.15;;;9.65;;
22679;SDS011;11507;44.858;10.374;2023-03-13T01:54:31;14.85;;;9.95;;
22679;SDS011;11507;44.858;10.374;2023-03-13T01:57:11;16.55;;;8.75;;
22679;SDS011;11507;44.858;10.374;2023-03-13T02:02:25;17.23;;;9.25;;
22679;SDS011;11507;44.858;10.374;2023-03-13T02:04:53;18.73;;;9.43;;
22679;SDS011;11507;44.858;10.374;2023-03-13T02:07:28;15.15;;;9.65;;
22679;SDS011;11507;44.858;10.374;2023-03-13T02:10:03;15.05;;;8.25;;
22679;SDS011;11507;44.858;10.374;2023-03-13T02:12:31;14.52;;;8.63;;
22679;SDS011;11507;44.858;10.374;2023-03-13T02:15:01;12.88;;;8.23;;
22679;SDS011;11507;44.858;10.374;2023-03-13T02:17:33;15.48;;;8.98;;
22679;SDS011;11507;44.858;10.374;2023-03-13T02:20:01;14.48;;;8.10;;
22679;SDS011;11507;44.858;10.374;2023-03-13T02:27:57;20.27;;;10.23;;
22679;SDS011;11507;44.858;10.374;2023-03-13T02:30:29;14.07;;;8.35;;
22679;SDS011;11507;44.858;10.374;2023-03-13T02:32:55;18.73;;;9.45;;
22679;SDS011;11507;44.858;10.374;2023-03-13T02:37:49;16.83;;;9.80;;
22679;SDS011;11507;44.858;10.374;2023-03-13T02:40:21;13.23;;;8.85;;
22679;SDS011;11507;44.858;10.374;2023-03-13T02:42:51;18.17;;;8.73;;
22679;SDS011;11507;44.858;10.374;2023-03-13T02:45:17;18.15;;;9.05;;
22679;SDS011;11507;44.858;10.374;2023-03-13T02:47:44;14.43;;;8.98;;
22679;SDS011;11507;44.858;10.374;2023-03-13T02:52:39;16.70;;;8.80;;
22679;SDS011;11507;44.858;10.374;2023-03-13T02:55:14;14.13;;;9.65;;
22679;SDS011;11507;44.858;10.374;2023-03-13T02:57:43;16.65;;;9.27;;
22679;SDS011;11507;44.858;10.374;2023-03-13T03:00:09;16.92;;;9.23;;
22679;SDS011;11507;44.858;10.374;2023-03-13T03:02:43;15.35;;;9.63;;
22679;SDS011;11507;44.858;10.374;2023-03-13T03:07:37;17.00;;;10.32;;
22679;SDS011;11507;44.858;10.374;2023-03-13T03:10:05;17.73;;;10.43;;
22679;SDS011;11507;44.858;10.374;2023-03-13T03:12:34;16.48;;;9.98;;
22679;SDS011;11507;44.858;10.374;2023-03-13T03:17:26;17.67;;;10.40;;
22679;SDS011;11507;44.858;10.374;2023-03-13T03:22:18;25.83;;;12.23;;
22679;SDS011;11507;44.858;10.374;2023-03-13T03:27:10;17.33;;;12.02;;
22679;SDS011;11507;44.858;10.374;2023-03-13T03:29:43;19.95;;;12.32;;
22679;SDS011;11507;44.858;10.374;2023-03-13T03:34:36;19.65;;;11.88;;
22679;SDS011;11507;44.858;10.374;2023-03-13T03:37:02;19.08;;;12.65;;
22679;SDS011;11507;44.858;10.374;2023-03-13T03:41:54;21.70;;;11.75;;
22679;SDS011;11507;44.858;10.374;2023-03-13T03:44:21;28.73;;;13.38;;
22679;SDS011;11507;44.858;10.374;2023-03-13T03:46:51;17.88;;;11.00;;
22679;SDS011;11507;44.858;10.374;2023-03-13T03:49:19;20.85;;;10.82;;
22679;SDS011;11507;44.858;10.374;2023-03-13T03:51:45;18.20;;;10.35;;
22679;SDS011;11507;44.858;10.374;2023-03-13T03:54:13;19.80;;;11.82;;
22679;SDS011;11507;44.858;10.374;2023-03-13T03:59:04;21.52;;;12.55;;
22679;SDS011;11507;44.858;10.374;2023-03-13T04:01:40;21.38;;;11.38;;
22679;SDS011;11507;44.858;10.374;2023-03-13T04:04:06;19.08;;;11.00;;
22679;SDS011;11507;44.858;10.374;2023-03-13T04:08:58;17.25;;;11.52;;
22679;SDS011;11507;44.858;10.374;2023-03-13T04:11:27;18.95;;;11.02;;
22679;SDS011;11507;44.858;10.374;2023-03-13T04:13:54;22.20;;;12.18;;
22679;SDS011;11507;44.858;10.374;2023-03-13T04:16:23;19.02;;;10.68;;
22679;SDS011;11507;44.858;10.374;2023-03-13T04:18:49;20.73;;;11.82;;
22679;SDS011;11507;44.858;10.374;2023-03-13T04:21:16;19.75;;;11.38;;
22679;SDS011;11507;44.858;10.374;2023-03-13T04:23:48;23.10;;;12.85;;
22679;SDS011;11507;44.858;10.374;2023-03-13T04:26:14;20.70;;;12.77;;
22679;SDS011;11507;44.858;10.374;2023-03-13T04:28:41;21.05;;;11.50;;
22679;SDS011;11507;44.858;10.374;2023-03-13T04:31:09;18.65;;;11.75;;
22679;SDS011;11507;44.858;10.374;2023-03-13T04:34:03;22.83;;;12.02;;
22679;SDS011;11507;44.858;10.374;2023-03-13T04:36:52;20.75;;;12.07;;
22679;SDS011;11507;44.858;10.374;2023-03-13T04:39:38;21.60;;;12.02;;
22679;SDS011;11507;44.858;10.374;2023-03-13T04:42:12;19.33;;;12.30;;
22679;SDS011;11507;44.858;10.374;2023-03-13T04:44:50;19.45;;;11.77;;
22679;SDS011;11507;44.858;10.374;2023-03-13T04:50:11;18.50;;;11.93;;
22679;SDS011;11507;44.858;10.374;2023-03-13T04:52:45;20.83;;;13.52;;
22679;SDS011;11507;44.858;10.374;2023-03-13T04:55:31;23.42;;;12.48;;
22679;SDS011;11507;44.858;10.374;2023-03-13T04:58:16;24.27;;;12.77;;
22679;SDS011;11507;44.858;10.374;2023-03-13T05:01:03;17.63;;;11.15;;
22679;SDS011;11507;44.858;10.374;2023-03-13T05:03:42;16.20;;;10.82;;
22679;SDS011;11507;44.858;10.374;2023-03-13T05:06:23;16.80;;;11.10;;
22679;SDS011;11507;44.858;10.374;2023-03-13T05:09:01;22.73;;;11.32;;
22679;SDS011;11507;44.858;10.374;2023-03-13T05:12:00;19.48;;;11.32;;
22679;SDS011;11507;44.858;10.374;2023-03-13T05:14:46;17.13;;;10.88;;
22679;SDS011;11507;44.858;10.374;2023-03-13T05:17:37;19.23;;;11.10;;
22679;SDS011;11507;44.858;10.374;2023-03-13T05:20:26;20.90;;;10.70;;
22679;SDS011;11507;44.858;10.374;2023-03-13T05:23:09;19.38;;;11.93;;
22679;SDS011;11507;44.858;10.374;2023-03-13T05:25:55;21.80;;;12.18;;
22679;SDS011;11507;44.858;10.374;2023-03-13T05:28:39;22.40;;;13.07;;
22679;SDS011;11507;44.858;10.374;2023-03-13T05:31:27;19.90;;;12.82;;
22679;SDS011;11507;44.858;10.374;2023-03-13T05:34:12;25.38;;;14.35;;
22679;SDS011;11507;44.858;10.374;2023-03-13T05:37:02;21.25;;;13.32;;
22679;SDS011;11507;44.858;10.374;2023-03-13T05:39:31;21.80;;;13.38;;
22679;SDS011;11507;44.858;10.374;2023-03-13T05:42:26;22.45;;;12.50;;
22679;SDS011;11507;44.858;10.374;2023-03-13T05:47:30;21.02;;;13.70;;
22679;SDS011;11507;44.858;10.374;2023-03-13T05:50:26;27.27;;;15.30;;
22679;SDS011;11507;44.858;10.374;2023-03-13T05:53:10;23.88;;;13.48;;
22679;SDS011;11507;44.858;10.374;2023-03-13T05:55:59;22.65;;;13.32;;
22679;SDS011;11507;44.858;10.374;2023-03-13T05:58:41;27.90;;;12.65;;
22679;SDS011;11507;44.858;10.374;2023-03-13T06:04:18;21.70;;;13.48;;
22679;SDS011;11507;44.858;10.374;2023-03-13T06:06:46;19.38;;;13.00;;
22679;SDS011;11507;44.858;10.374;2023-03-13T06:09:13;19.38;;;12.35;;
22679;SDS011;11507;44.858;10.374;2023-03-13T06:11:43;21.15;;;12.23;;
22679;SDS011;11507;44.858;10.374;2023-03-13T06:17:00;18.23;;;11.15;;
22679;SDS011;11507;44.858;10.374;2023-03-13T06:19:28;17.83;;;11.10;;
22679;SDS011;11507;44.858;10.374;2023-03-13T06:21:56;18.25;;;10.88;;
22679;SDS011;11507;44.858;10.374;2023-03-13T06:24:26;18.42;;;11.50;;
22679;SDS011;11507;44.858;10.374;2023-03-13T06:29:18;19.83;;;12.98;;
22679;SDS011;11507;44.858;10.374;2023-03-13T06:34:10;26.08;;;14.98;;
22679;SDS011;11507;44.858;10.374;2023-03-13T06:36:39;27.40;;;17.17;;
22679;SDS011;11507;44.858;10.374;2023-03-13T06:41:32;23.02;;;14.45;;
22679;SDS011;11507;44.858;10.374;2023-03-13T06:43:58;22.73;;;14.07;;
22679;SDS011;11507;44.858;10.374;2023-03-13T06:48:50;24.85;;;14.35;;
22679;SDS011;11507;44.858;10.374;2023-03-13T06:53:44;23.88;;;13.60;;
22679;SDS011;11507;44.858;10.374;2023-03-13T06:56:11;21.40;;;13.82;;
22679;SDS011;11507;44.858;10.374;2023-03-13T06:58:39;23.80;;;13.68;;
22679;SDS011;11507;44.858;10.374;2023-03-13T07:01:09;20.48;;;13.55;;
22679;SDS011;11507;44.858;10.374;2023-03-13T07:03:36;21.60;;;13.82;;
22679;SDS011;11507;44.858;10.374;2023-03-13T07:06:04;26.15;;;16.13;;
22679;SDS011;11507;44.858;10.374;2023-03-13T07:08:30;26.40;;;15.55;;
22679;SDS011;11507;44.858;10.374;2023-03-13T07:10:58;23.48;;;16.15;;
22679;SDS011;11507;44.858;10.374;2023-03-13T07:13:25;23.55;;;16.00;;
22679;SDS011;11507;44.858;10.374;2023-03-13T07:18:17;22.85;;;13.70;;
22679;SDS011;11507;44.858;10.374;2023-03-13T07:20:52;22.13;;;14.13;;
22679;SDS011;11507;44.858;10.374;2023-03-13T07:23:20;19.45;;;13.38;;
22679;SDS011;11507;44.858;10.374;2023-03-13T07:26:00;19.42;;;12.80;;
22679;SDS011;11507;44.858;10.374;2023-03-13T07:28:28;15.00;;;10.93;;
22679;SDS011;11507;44.858;10.374;2023-03-13T07:31:01;19.45;;;11.48;;
22679;SDS011;11507;44.858;10.374;2023-03-13T07:33:29;18.45;;;11.05;;
22679;SDS011;11507;44.858;10.374;2023-03-13T07:38:21;16.20;;;10.20;;
22679;SDS011;11507;44.858;10.374;2023-03-13T07:43:16;21.50;;;13.50;;
22679;SDS011;11507;44.858;10.374;2023-03-13T07:45:53;28.27;;;17.90;;
22679;SDS011;11507;44.858;10.374;2023-03-13T07:48:23;24.38;;;16.65;;
22679;SDS011;11507;44.858;10.374;2023-03-13T07:50:53;21.30;;;14.57;;
22679;SDS011;11507;44.858;10.374;2023-03-13T07:53:20;20.80;;;11.95;;
22679;SDS011;11507;44.858;10.374;2023-03-13T07:58:23;14.27;;;9.00;;
22679;SDS011;11507;44.858;10.374;2023-03-13T08:00:49;16.02;;;9.55;;
22679;SDS011;11507;44.858;10.374;2023-03-13T08:03:16;17.10;;;9.02;;
22679;SDS011;11507;44.858;10.374;2023-03-13T08:08:07;20.80;;;9.20;;
22679;SDS011;11507;44.858;10.374;2023-03-13T08:10:33;12.18;;;8.10;;
22679;SDS011;11507;44.858;10.374;2023-03-13T08:15:25;14.52;;;8.98;;
22679;SDS011;11507;44.858;10.374;2023-03-13T08:17:53;12.30;;;8.38;;
22679;SDS011;11507;44.858;10.374;2023-03-13T08:20:19;11.38;;;7.88;;
22679;SDS011;11507;44.858;10.374;2023-03-13T08:22:46;10.70;;;8.00;;
22679;SDS011;11507;44.858;10.374;2023-03-13T08:25:13;12.80;;;8.30;;
22679;SDS011;11507;44.858;10.374;2023-03-13T08:30:05;11.95;;;8.30;;
22679;SDS011;11507;44.858;10.374;2023-03-13T08:32:32;15.95;;;9.35;;
22679;SDS011;11507;44.858;10.374;2023-03-13T08:34:58;14.00;;;8.90;;
22679;SDS011;11507;44.858;10.374;2023-03-13T08:39:50;12.05;;;8.57;;
22679;SDS011;11507;44.858;10.374;2023-03-13T08:42:18;14.77;;;8.65;;
22679;SDS011;11507;44.858;10.374;2023-03-13T08:47:09;10.43;;;7.55;;
22679;SDS011;11507;44.858;10.374;2023-03-13T08:49:35;11.95;;;7.53;;
22679;SDS011;11507;44.858;10.374;2023-03-13T08:52:02;11.95;;;7.22;;
22679;SDS011;11507;44.858;10.374;2023-03-13T08:54:29;10.27;;;7.22;;
22679;SDS011;11507;44.858;10.374;2023-03-13T08:56:55;11.25;;;7.00;;
22679;SDS011;11507;44.858;10.374;2023-03-13T08:59:21;15.05;;;7.30;;
22679;SDS011;11507;44.858;10.374;2023-03-13T09:04:13;12.40;;;7.60;;
22679;SDS011;11507;44.858;10.374;2023-03-13T09:06:39;11.65;;;6.60;;
22679;SDS011;11507;44.858;10.374;2023-03-13T09:09:05;10.13;;;6.68;;
22679;SDS011;11507;44.858;10.374;2023-03-13T09:11:32;10.63;;;6.55;;
22679;SDS011;11507;44.858;10.374;2023-03-13T09:13:59;9.75;;;7.10;;
22679;SDS011;11507;44.858;10.374;2023-03-13T09:16:27;8.57;;;6.43;;
22679;SDS011;11507;44.858;10.374;2023-03-13T09:18:54;8.73;;;6.57;;
22679;SDS011;11507;44.858;10.374;2023-03-13T09:21:25;9.75;;;6.60;;
22679;SDS011;11507;44.858;10.374;2023-03-13T09:23:55;11.07;;;6.57;;
22679;SDS011;11507;44.858;10.374;2023-03-13T09:26:22;10.68;;;6.30;;
22679;SDS011;11507;44.858;10.374;2023-03-13T09:28:49;12.57;;;6.93;;
22679;SDS011;11507;44.858;10.374;2023-03-13T09:31:20;10.48;;;6.60;;
22679;SDS011;11507;44.858;10.374;2023-03-13T09:33:48;11.95;;;6.40;;
22679;SDS011;11507;44.858;10.374;2023-03-13T09:36:16;9.73;;;5.82;;
22679;SDS011;11507;44.858;10.374;2023-03-13T09:38:43;11.80;;;6.38;;
22679;SDS011;11507;44.858;10.374;2023-03-13T09:44:10;13.20;;;6.40;;
22679;SDS011;11507;44.858;10.374;2023-03-13T09:49:34;10.88;;;6.45;;
22679;SDS011;11507;44.858;10.374;2023-03-13T09:52:20;10.18;;;6.90;;
22679;SDS011;11507;44.858;10.374;2023-03-13T10:02:37;10.50;;;6.78;;
22679;SDS011;11507;44.858;10.374;2023-03-13T10:05:23;8.85;;;6.53;;
22679;SDS011;11507;44.858;10.374;2023-03-13T10:07:54;9.45;;;6.60;;
22679;SDS011;11507;44.858;10.374;2023-03-13T10:10:28;9.63;;;6.53;;
22679;SDS011;11507;44.858;10.374;2023-03-13T10:16:13;11.88;;;7.15;;
22679;SDS011;11507;44.858;10.374;2023-03-13T10:18:46;11.85;;;6.53;;
22679;SDS011;11507;44.858;10.374;2023-03-13T10:21:17;10.05;;;6.68;;
22679;SDS011;11507;44.858;10.374;2023-03-13T10:26:20;9.65;;;7.05;;
22679;SDS011;11507;44.858;10.374;2023-03-13T10:28:50;10.82;;;7.07;;
22679;SDS011;11507;44.858;10.374;2023-03-13T10:31:19;12.60;;;6.88;;
22679;SDS011;11507;44.858;10.374;2023-03-13T10:34:06;11.10;;;7.05;;
22679;SDS011;11507;44.858;10.374;2023-03-13T10:36:44;11.43;;;6.82;;
22679;SDS011;11507;44.858;10.374;2023-03-13T10:39:17;11.70;;;7.00;;
22679;SDS011;11507;44.858;10.374;2023-03-13T10:41:45;10.40;;;7.00;;
22679;SDS011;11507;44.858;10.374;2023-03-13T10:44:16;10.65;;;6.65;;
22679;SDS011;11507;44.858;10.374;2023-03-13T10:46:45;12.95;;;6.90;;
22679;SDS011;11507;44.858;10.374;2023-03-13T10:49:16;10.18;;;6.57;;
22679;SDS011;11507;44.858;10.374;2023-03-13T10:51:48;9.98;;;6.88;;
22679;SDS011;11507;44.858;10.374;2023-03-13T10:54:43;10.98;;;6.25;;
22679;SDS011;11507;44.858;10.374;2023-03-13T10:59:43;11.93;;;6.57;;
22679;SDS011;11507;44.858;10.374;2023-03-13T11:04:59;10.45;;;6.80;;
22679;SDS011;11507;44.858;10.374;2023-03-13T11:12:28;10.77;;;6.70;;
22679;SDS011;11507;44.858;10.374;2023-03-13T11:15:17;13.18;;;6.93;;
22679;SDS011;11507;44.858;10.374;2023-03-13T11:18:09;9.18;;;6.50;;
22679;SDS011;11507;44.858;10.374;2023-03-13T11:20:46;11.00;;;7.03;;
22679;SDS011;11507;44.858;10.374;2023-03-13T11:28:47;11.55;;;7.20;;
22679;SDS011;11507;44.858;10.374;2023-03-13T11:31:38;10.00;;;6.85;;
22679;SDS011;11507;44.858;10.374;2023-03-13T11:34:30;8.90;;;6.57;;
22679;SDS011;11507;44.858;10.374;2023-03-13T11:36:59;11.30;;;7.25;;
22679;SDS011;11507;44.858;10.374;2023-03-13T11:44:56;11.60;;;6.72;;
22679;SDS011;11507;44.858;10.374;2023-03-13T11:56:08;7.88;;;6.22;;
22679;SDS011;11507;44.858;10.374;2023-03-13T11:59:02;11.85;;;6.80;;
22679;SDS011;11507;44.858;10.374;2023-03-13T12:01:51;11.07;;;6.50;;
22679;SDS011;11507;44.858;10.374;2023-03-13T12:04:25;9.35;;;6.35;;
22679;SDS011;11507;44.858;10.374;2023-03-13T12:09:27;7.47;;;5.88;;
22679;SDS011;11507;44.858;10.374;2023-03-13T12:12:11;8.98;;;6.45;;
22679;SDS011;11507;44.858;10.374;2023-03-13T12:20:40;10.77;;;6.50;;
22679;SDS011;11507;44.858;10.374;2023-03-13T12:29:47;10.77;;;6.65;;
22679;SDS011;11507;44.858;10.374;2023-03-13T12:31:52;9.63;;;6.97;;
22679;SDS011;11507;44.858;10.374;2023-03-13T12:34:38;9.55;;;6.72;;
22679;SDS011;11507;44.858;10.374;2023-03-13T12:37:11;10.35;;;7.13;;
22679;SDS011;11507;44.858;10.374;2023-03-13T12:42:41;8.63;;;6.78;;
22679;SDS011;11507;44.858;10.374;2023-03-13T12:45:15;8.98;;;6.75;;
22679;SDS011;11507;44.858;10.374;2023-03-13T12:59:03;10.65;;;7.00;;
22679;SDS011;11507;44.858;10.374;2023-03-13T13:01:46;12.23;;;7.00;;
22679;SDS011;11507;44.858;10.374;2023-03-13T13:09:22;10.95;;;7.32;;
22679;SDS011;11507;44.858;10.374;2023-03-13T13:11:51;11.23;;;7.22;;
22679;SDS011;11507;44.858;10.374;2023-03-13T13:16:45;11.00;;;7.18;;
22679;SDS011;11507;44.858;10.374;2023-03-13T13:24:55;10.77;;;6.97;;
22679;SDS011;11507;44.858;10.374;2023-03-13T13:30:01;10.07;;;6.80;;
22679;SDS011;11507;44.858;10.374;2023-03-13T13:32:49;10.10;;;7.45;;
22679;SDS011;11507;44.858;10.374;2023-03-13T13:41:26;12.93;;;6.90;;
22679;SDS011;11507;44.858;10.374;2023-03-13T13:43:35;15.40;;;7.53;;
22679;SDS011;11507;44.858;10.374;2023-03-13T13:46:21;11.73;;;6.53;;
22679;SDS011;11507;44.858;10.374;2023-03-13T13:51:31;9.00;;;6.97;;
22679;SDS011;11507;44.858;10.374;2023-03-13T13:56:35;8.88;;;6.78;;
22679;SDS011;11507;44.858;10.374;2023-03-13T13:59:35;9.68;;;7.00;;
22679;SDS011;11507;44.858;10.374;2023-03-13T14:07:18;10.75;;;6.78;;
22679;SDS011;11507;44.858;10.374;2023-03-13T14:09:56;10.88;;;7.35;;
22679;SDS011;11507;44.858;10.374;2023-03-13T14:12:54;11.20;;;7.05;;
22679;SDS011;11507;44.858;10.374;2023-03-13T14:15:22;10.05;;;7.30;;
22679;SDS011;11507;44.858;10.374;2023-03-13T14:17:51;11.63;;;7.13;;
22679;SDS011;11507;44.858;10.374;2023-03-13T14:20:27;10.55;;;7.47;;
22679;SDS011;11507;44.858;10.374;2023-03-13T14:23:01;12.43;;;7.40;;
22679;SDS011;11507;44.858;10.374;2023-03-13T14:25:40;14.55;;;7.70;;
22679;SDS011;11507;44.858;10.374;2023-03-13T14:28:17;12.27;;;7.07;;
22679;SDS011;11507;44.858;10.374;2023-03-13T14:30:49;8.65;;;6.75;;
22679;SDS011;11507;44.858;10.374;2023-03-13T14:33:16;9.88;;;7.07;;
22679;SDS011;11507;44.858;10.374;2023-03-13T14:35:43;13.18;;;7.43;;
22679;SDS011;11507;44.858;10.374;2023-03-13T14:38:15;12.82;;;6.93;;
22679;SDS011;11507;44.858;10.374;2023-03-13T14:40:51;13.07;;;7.65;;
22679;SDS011;11507;44.858;10.374;2023-03-13T14:45:45;11.13;;;7.60;;
22679;SDS011;11507;44.858;10.374;2023-03-13T14:48:16;11.90;;;7.70;;
22679;SDS011;11507;44.858;10.374;2023-03-13T14:50:46;12.93;;;8.23;;
22679;SDS011;11507;44.858;10.374;2023-03-13T14:53:17;13.40;;;7.20;;
22679;SDS011;11507;44.858;10.374;2023-03-13T14:55:45;11.35;;;7.57;;
22679;SDS011;11507;44.858;10.374;2023-03-13T14:58:25;11.98;;;7.65;;
22679;SDS011;11507;44.858;10.374;2023-03-13T15:00:53;11.43;;;7.78;;
22679;SDS011;11507;44.858;10.374;2023-03-13T15:03:21;10.73;;;7.78;;
22679;SDS011;11507;44.858;10.374;2023-03-13T15:08:37;11.73;;;7.95;;
22679;SDS011;11507;44.858;10.374;2023-03-13T15:11:18;12.23;;;7.90;;
22679;SDS011;11507;44.858;10.374;2023-03-13T15:13:53;13.48;;;7.55;;
22679;SDS011;11507;44.858;10.374;2023-03-13T15:16:20;13.38;;;8.05;;
22679;SDS011;11507;44.858;10.374;2023-03-13T15:18:48;10.93;;;7.85;;
22679;SDS011;11507;44.858;10.374;2023-03-13T15:23:41;11.98;;;8.48;;
22679;SDS011;11507;44.858;10.374;2023-03-13T15:26:14;12.05;;;8.18;;
22679;SDS011;11507;44.858;10.374;2023-03-13T15:28:39;13.05;;;8.10;;
22679;SDS011;11507;44.858;10.374;2023-03-13T15:31:05;15.52;;;8.50;;
22679;SDS011;11507;44.858;10.374;2023-03-13T15:33:31;12.38;;;7.72;;
22679;SDS011;11507;44.858;10.374;2023-03-13T15:35:59;14.07;;;8.07;;
22679;SDS011;11507;44.858;10.374;2023-03-13T15:38:25;12.80;;;8.45;;
22679;SDS011;11507;44.858;10.374;2023-03-13T15:40:52;14.13;;;8.90;;
22679;SDS011;11507;44.858;10.374;2023-03-13T15:43:18;13.75;;;9.52;;
22679;SDS011;11507;44.858;10.374;2023-03-13T15:45:46;13.98;;;8.35;;
22679;SDS011;11507;44.858;10.374;2023-03-13T15:48:26;18.00;;;8.43;;
22679;SDS011;11507;44.858;10.374;2023-03-13T15:50:54;12.68;;;8.50;;
22679;SDS011;11507;44.858;10.374;2023-03-13T15:53:29;13.30;;;7.95;;
22679;SDS011;11507;44.858;10.374;2023-03-13T15:55:58;14.02;;;8.25;;
22679;SDS011;11507;44.858;10.374;2023-03-13T15:58:25;15.13;;;8.18;;
22679;SDS011;11507;44.858;10.374;2023-03-13T16:00:53;12.18;;;8.70;;
22679;SDS011;11507;44.858;10.374;2023-03-13T16:03:26;17.08;;;9.38;;
22679;SDS011;11507;44.858;10.374;2023-03-13T16:05:53;16.25;;;8.98;;
22679;SDS011;11507;44.858;10.374;2023-03-13T16:08:22;21.55;;;9.52;;
22679;SDS011;11507;44.858;10.374;2023-03-13T16:10:49;16.30;;;9.75;;
22679;SDS011;11507;44.858;10.374;2023-03-13T16:13:16;14.98;;;9.68;;
22679;SDS011;11507;44.858;10.374;2023-03-13T16:15:43;13.63;;;8.85;;
22679;SDS011;11507;44.858;10.374;2023-03-13T16:18:15;18.58;;;9.95;;
22679;SDS011;11507;44.858;10.374;2023-03-13T16:20:44;15.90;;;9.38;;
22679;SDS011;11507;44.858;10.374;2023-03-13T16:23:10;16.73;;;9.40;;
22679;SDS011;11507;44.858;10.374;2023-03-13T16:25:36;15.40;;;10.02;;
22679;SDS011;11507;44.858;10.374;2023-03-13T16:28:04;18.30;;;9.45;;
22679;SDS011;11507;44.858;10.374;2023-03-13T16:30:36;15.20;;;9.60;;
22679;SDS011;11507;44.858;10.374;2023-03-13T16:33:11;17.97;;;9.70;;
22679;SDS011;11507;44.858;10.374;2023-03-13T16:35:38;14.20;;;9.32;;
22679;SDS011;11507;44.858;10.374;2023-03-13T16:38:04;14.38;;;9.43;;
22679;SDS011;11507;44.858;10.374;2023-03-13T16:40:33;17.35;;;9.68;;
22679;SDS011;11507;44.858;10.374;2023-03-13T16:42:59;15.00;;;9.25;;
22679;SDS011;11507;44.858;10.374;2023-03-13T16:45:25;19.30;;;10.00;;
22679;SDS011;11507;44.858;10.374;2023-03-13T16:47:51;16.70;;;9.45;;
22679;SDS011;11507;44.858;10.374;2023-03-13T16:50:31;17.60;;;9.48;;
22679;SDS011;11507;44.858;10.374;2023-03-13T16:52:58;16.60;;;10.43;;
22679;SDS011;11507;44.858;10.374;2023-03-13T16:55:24;15.13;;;9.77;;
22679;SDS011;11507;44.858;10.374;2023-03-13T16:57:55;16.50;;;9.95;;
22679;SDS011;11507;44.858;10.374;2023-03-13T17:00:22;18.52;;;10.35;;
22679;SDS011;11507;44.858;10.374;2023-03-13T17:02:49;17.52;;;9.50;;
22679;SDS011;11507;44.858;10.374;2023-03-13T17:05:16;21.65;;;10.55;;
22679;SDS011;11507;44.858;10.374;2023-03-13T17:07:43;15.85;;;9.60;;
22679;SDS011;11507;44.858;10.374;2023-03-13T17:10:13;16.27;;;10.20;;
22679;SDS011;11507;44.858;10.374;2023-03-13T17:12:46;15.15;;;8.43;;
22679;SDS011;11507;44.858;10.374;2023-03-13T17:15:12;13.38;;;8.80;;
22679;SDS011;11507;44.858;10.374;2023-03-13T17:17:38;17.00;;;9.48;;
22679;SDS011;11507;44.858;10.374;2023-03-13T17:20:05;14.30;;;8.95;;
22679;SDS011;11507;44.858;10.374;2023-03-13T17:22:33;18.38;;;10.00;;
22679;SDS011;11507;44.858;10.374;2023-03-13T17:25:01;16.52;;;9.07;;
22679;SDS011;11507;44.858;10.374;2023-03-13T17:27:26;16.85;;;9.25;;
22679;SDS011;11507;44.858;10.374;2023-03-13T17:29:53;15.63;;;9.95;;
22679;SDS011;11507;44.858;10.374;2023-03-13T17:32:19;17.38;;;9.88;;
22679;SDS011;11507;44.858;10.374;2023-03-13T17:34:45;15.93;;;9.13;;
22679;SDS011;11507;44.858;10.374;2023-03-13T17:37:18;15.43;;;9.85;;
22679;SDS011;11507;44.858;10.374;2023-03-13T17:39:45;14.00;;;9.73;;
22679;SDS011;11507;44.858;10.374;2023-03-13T17:42:13;20.30;;;10.18;;
22679;SDS011;11507;44.858;10.374;2023-03-13T17:44:39;15.50;;;9.10;;
22679;SDS011;11507;44.858;10.374;2023-03-13T17:47:15;15.90;;;10.18;;
22679;SDS011;11507;44.858;10.374;2023-03-13T17:49:45;15.13;;;10.00;;
22679;SDS011;11507;44.858;10.374;2023-03-13T17:52:15;16.52;;;10.32;;
22679;SDS011;11507;44.858;10.374;2023-03-13T17:54:41;23.48;;;15.63;;
22679;SDS011;11507;44.858;10.374;2023-03-13T17:57:15;18.35;;;13.25;;
22679;SDS011;11507;44.858;10.374;2023-03-13T17:59:43;20.67;;;12.95;;
22679;SDS011;11507;44.858;10.374;2023-03-13T18:02:13;19.17;;;11.68;;
22679;SDS011;11507;44.858;10.374;2023-03-13T18:04:41;16.38;;;10.63;;
22679;SDS011;11507;44.858;10.374;2023-03-13T18:07:23;23.15;;;12.57;;
22679;SDS011;11507;44.858;10.374;2023-03-13T18:09:52;17.90;;;11.63;;
22679;SDS011;11507;44.858;10.374;2023-03-13T18:12:18;18.10;;;11.65;;
22679;SDS011;11507;44.858;10.374;2023-03-13T18:14:45;18.70;;;11.52;;
22679;SDS011;11507;44.858;10.374;2023-03-13T18:17:15;20.75;;;11.00;;
22679;SDS011;11507;44.858;10.374;2023-03-13T18:19:43;16.08;;;10.73;;
22679;SDS011;11507;44.858;10.374;2023-03-13T18:22:13;17.08;;;11.55;;
22679;SDS011;11507;44.858;10.374;2023-03-13T18:24:42;18.67;;;11.82;;
22679;SDS011;11507;44.858;10.374;2023-03-13T18:27:15;20.67;;;12.23;;